createdAt,value
2023-02-20T00:01:52.646Z,100085.97
2023-02-20T00:04:24.739Z,100074.47
2023-02-20T00:06:56.498Z,100075.78
2023-02-20T00:09:28.369Z,100070.19
2023-02-20T00:12:00.423Z,100068.53
2023-02-20T00:14:32.307Z,100065.81
2023-02-20T00:17:04.046Z,100057.72
2023-02-20T00:19:36.281Z,100057.34
2023-02-20T00:22:08.014Z,100051.91
2023-02-20T00:24:39.712Z,100042.16
2023-02-20T00:27:12.564Z,100040.38
2023-02-20T00:29:46.125Z,100036.69
2023-02-20T00:32:20.116Z,100032.06
2023-02-20T00:34:54.856Z,100025.84
2023-02-20T00:37:26.573Z,100030.25
2023-02-20T00:39:58.198Z,100027.63
2023-02-20T00:42:29.907Z,100020.75
2023-02-20T00:45:01.905Z,100022.88
2023-02-20T00:47:34.704Z,100024.69
2023-02-20T00:50:09.354Z,100019.44
2023-02-20T00:52:41.115Z,100027.03
2023-02-20T00:55:13.180Z,100031.34
2023-02-20T00:57:44.881Z,100022.28
2023-02-20T01:00:23.888Z,100028.38
2023-02-20T01:02:56.655Z,100030.63
2023-02-20T01:05:28.423Z,100029.56
2023-02-20T01:08:00.129Z,100022.44
2023-02-20T01:10:31.738Z,100023.13
2023-02-20T01:13:03.432Z,100023.13
2023-02-20T01:15:37.897Z,100015.53
2023-02-20T01:18:09.771Z,100007.78
2023-02-20T01:20:41.405Z,99997.41
2023-02-20T01:23:13.122Z,99997.53
2023-02-20T01:25:44.769Z,99996.09
2023-02-20T01:28:18.842Z,99993.56
2023-02-20T01:30:50.588Z,100006.88
2023-02-20T01:33:22.548Z,100005.22
2023-02-20T01:35:56.621Z,99997.47
2023-02-20T01:38:28.380Z,100001.50
2023-02-20T01:41:00.237Z,99996.25
2023-02-20T01:43:31.997Z,99994.47
2023-02-20T01:46:32.198Z,99983.06
2023-02-20T01:49:09.719Z,99979.25
2023-02-20T01:51:50.889Z,99970.13
2023-02-20T01:54:26.037Z,99961.59
2023-02-20T01:57:03.961Z,99954.94
2023-02-20T01:59:40.850Z,99944.09
2023-02-20T02:02:12.691Z,99932.06
2023-02-20T02:04:48.271Z,99934.94
2023-02-20T02:07:20.145Z,99931.28
2023-02-20T02:09:56.159Z,99947.69
2023-02-20T02:12:30.850Z,99941.97
2023-02-20T02:15:02.881Z,99935.53
2023-02-20T02:17:51.088Z,99932.56
2023-02-20T02:20:25.657Z,99925.06
2023-02-20T02:23:36.060Z,99922.81
2023-02-20T02:26:43.302Z,99912.59
2023-02-20T02:29:17.900Z,99911.38
2023-02-20T02:32:07.589Z,99901.75
2023-02-20T02:34:51.702Z,99903.28
2023-02-20T02:38:04.363Z,99899.38
2023-02-20T02:40:54.632Z,99885.66
2023-02-20T02:43:35.096Z,99882.66
2023-02-20T02:46:15.301Z,99877.31
2023-02-20T02:49:11.461Z,99881.50
2023-02-20T02:51:47.916Z,99880.38
2023-02-20T02:54:30.049Z,99885.41
2023-02-20T02:57:25.347Z,99878.94
2023-02-20T03:00:00.157Z,99888.03
2023-02-20T03:02:35.052Z,99889.53
2023-02-20T03:05:10.625Z,99892.44
2023-02-20T03:07:45.281Z,99887.66
2023-02-20T03:10:31.517Z,99898.97
2023-02-20T03:13:06.704Z,99895.53
2023-02-20T03:15:49.816Z,99894.94
2023-02-20T03:18:39.741Z,99897.44
2023-02-20T03:21:19.828Z,99872.19
2023-02-20T03:23:58.551Z,99870.06
2023-02-20T03:26:35.204Z,99860.03
2023-02-20T03:29:17.370Z,99856.59
2023-02-20T03:32:12.611Z,99855.88
2023-02-20T03:35:06.021Z,99856.25
2023-02-20T03:37:59.522Z,99852.41
2023-02-20T03:40:51.966Z,99856.22
2023-02-20T03:43:24.662Z,99859.19
2023-02-20T03:46:07.164Z,99860.47
2023-02-20T03:48:44.197Z,99853.94
2023-02-20T03:51:16.351Z,99866.19
2023-02-20T03:54:01.264Z,99858.00
2023-02-20T03:56:38.948Z,99863.13
2023-02-20T03:59:18.979Z,99861.06
2023-02-20T04:01:55.252Z,99858.78
2023-02-20T04:04:35.578Z,99865.44
2023-02-20T04:07:13.638Z,99854.63
2023-02-20T04:09:46.833Z,99851.72
2023-02-20T04:12:41.086Z,99856.50
2023-02-20T04:15:15.155Z,99852.50
2023-02-20T04:17:52.513Z,99846.16
2023-02-20T04:20:27.170Z,99843.28
2023-02-20T04:23:16.202Z,99853.50
2023-02-20T04:26:02.752Z,99842.09
2023-02-20T04:28:37.482Z,99848.28
2023-02-20T04:31:15.384Z,99847.44
2023-02-20T04:33:47.623Z,99848.28
2023-02-20T04:36:26.301Z,99844.59
2023-02-20T04:39:00.471Z,99849.72
2023-02-20T04:41:36.059Z,99842.53
2023-02-20T04:44:27.427Z,99835.28
2023-02-20T04:47:06.684Z,99841.19
2023-02-20T04:49:38.941Z,99835.84
2023-02-20T04:52:12.599Z,99831.16
2023-02-20T04:54:44.877Z,99825.91
2023-02-20T04:57:19.865Z,99816.97
2023-02-20T04:59:51.806Z,99816.03
2023-02-20T05:02:23.817Z,99824.84
2023-02-20T05:04:55.500Z,99824.00
2023-02-20T05:07:29.899Z,99829.38
2023-02-20T05:10:01.577Z,99822.72
2023-02-20T05:12:33.271Z,99826.91
2023-02-20T05:15:05.127Z,99837.50
2023-02-20T05:17:39.210Z,99841.06
2023-02-20T05:20:12.361Z,99839.28
2023-02-20T05:22:46.369Z,99837.50
2023-02-20T05:25:19.373Z,99840.97
2023-02-20T05:27:51.077Z,99847.16
2023-02-20T05:30:22.811Z,99848.00
2023-02-20T05:32:54.599Z,99840.25
2023-02-20T05:35:26.437Z,99845.47
2023-02-20T05:37:58.120Z,99861.81
2023-02-20T05:40:32.332Z,99866.06
2023-02-20T05:43:09.979Z,99863.22
2023-02-20T05:45:44.939Z,99857.38
2023-02-20T05:48:16.626Z,99852.59
2023-02-20T05:50:50.569Z,99839.09
2023-02-20T05:53:22.281Z,99851.69
2023-02-20T05:55:55.228Z,99860.13
2023-02-20T05:58:26.965Z,99866.09
2023-02-20T06:00:58.667Z,99857.13
2023-02-20T06:03:30.342Z,99859.38
2023-02-20T06:06:02.044Z,99858.25
2023-02-20T06:08:33.728Z,99853.63
2023-02-20T06:11:05.508Z,99854.28
2023-02-20T06:13:39.968Z,99853.09
2023-02-20T06:16:12.981Z,99859.63
2023-02-20T06:18:44.955Z,99863.63
2023-02-20T06:21:16.683Z,99860.63
2023-02-20T06:23:50.599Z,99857.75
2023-02-20T06:26:23.298Z,99846.84
2023-02-20T06:28:58.307Z,99838.03
2023-02-20T06:31:30.135Z,99844.66
2023-02-20T06:34:01.922Z,99835.00
2023-02-20T06:36:37.305Z,99850.34
2023-02-20T06:39:11.100Z,99840.16
2023-02-20T06:41:43.108Z,99841.28
2023-02-20T06:44:14.841Z,99846.03
2023-02-20T06:46:46.647Z,99842.88
2023-02-20T06:49:18.544Z,99841.63
2023-02-20T06:51:53.938Z,99827.84
2023-02-20T06:54:26.212Z,99833.63
2023-02-20T06:56:58.684Z,99833.25
2023-02-20T06:59:30.347Z,99838.94
2023-02-20T07:02:02.078Z,99828.28
2023-02-20T07:04:33.844Z,99821.94
2023-02-20T07:07:05.677Z,99820.69
2023-02-20T07:09:37.344Z,99822.94
2023-02-20T07:12:09.085Z,99814.47
2023-02-20T07:14:40.742Z,99816.72
2023-02-20T07:17:12.525Z,99821.41
2023-02-20T07:19:44.275Z,99825.44
2023-02-20T07:22:16.143Z,99817.94
2023-02-20T07:24:52.594Z,99822.53
2023-02-20T07:27:24.847Z,99828.06
2023-02-20T07:29:56.566Z,99822.25
2023-02-20T07:32:29.889Z,99809.53
2023-02-20T07:35:05.741Z,99809.22
2023-02-20T07:37:38.988Z,99820.31
2023-02-20T07:40:12.809Z,99821.00
2023-02-20T07:42:44.476Z,99811.59
2023-02-20T07:45:26.620Z,99814.75
2023-02-20T07:47:58.318Z,99812.69
2023-02-20T07:50:32.078Z,99814.91
2023-02-20T07:53:06.592Z,99824.47
2023-02-20T07:55:38.280Z,99828.06
2023-02-20T07:58:10.120Z,99828.47
2023-02-20T08:00:41.824Z,99824.44
2023-02-20T08:03:13.535Z,99811.69
2023-02-20T08:05:49.601Z,99802.81
2023-02-20T08:08:24.452Z,99804.06
2023-02-20T08:11:03.610Z,99785.91
2023-02-20T08:13:39.938Z,99791.56
2023-02-20T08:16:12.389Z,99789.91
2023-02-20T08:18:44.387Z,99780.44
2023-02-20T08:21:16.151Z,99781.66
2023-02-20T08:23:48.324Z,99776.97
2023-02-20T08:26:20.044Z,99774.59
2023-02-20T08:28:52.544Z,99774.53
2023-02-20T08:31:32.160Z,99771.44
2023-02-20T08:34:04.581Z,99763.25
2023-02-20T08:36:36.422Z,99761.72
2023-02-20T08:39:08.203Z,99741.69
2023-02-20T08:41:47.177Z,99730.03
2023-02-20T08:44:19.033Z,99743.72
2023-02-20T08:46:52.373Z,99729.56
2023-02-20T08:49:26.812Z,99742.00
2023-02-20T08:51:58.783Z,99747.13
2023-02-20T08:54:30.499Z,99739.22
2023-02-20T08:57:02.255Z,99731.84
2023-02-20T08:59:33.958Z,99730.97
2023-02-20T09:02:06.515Z,99736.38
2023-02-20T09:04:38.279Z,99729.66
2023-02-20T09:07:10.161Z,99711.81
2023-02-20T09:09:43.111Z,99702.84
2023-02-20T09:12:14.899Z,99708.06
2023-02-20T09:14:47.124Z,99712.16
2023-02-20T09:17:18.955Z,99701.50
2023-02-20T09:19:50.669Z,99691.59
2023-02-20T09:22:23.911Z,99708.75
2023-02-20T09:24:55.887Z,99709.44
2023-02-20T09:27:27.624Z,99694.22
2023-02-20T09:29:59.369Z,99715.38
2023-02-20T09:32:33.996Z,99705.59
2023-02-20T09:35:05.738Z,99692.88
2023-02-20T09:37:37.467Z,99687.25
2023-02-20T09:40:09.737Z,99702.09
2023-02-20T09:43:04.439Z,99712.97
2023-02-20T09:45:38.780Z,99722.00
2023-02-20T09:48:43.186Z,99703.22
2023-02-20T09:51:24.499Z,99680.41
2023-02-20T09:53:56.187Z,99696.81
2023-02-20T09:56:35.608Z,99677.84
2023-02-20T09:59:14.858Z,99693.06
2023-02-20T10:01:55.218Z,99669.41
2023-02-20T10:04:58.890Z,99662.59
2023-02-20T10:07:34.929Z,99665.56
2023-02-20T10:10:31.198Z,99652.31
2023-02-20T10:13:27.278Z,99643.28
2023-02-20T10:16:27.877Z,99637.34
2023-02-20T10:19:07.718Z,99640.22
2023-02-20T10:21:56.819Z,99652.03
2023-02-20T10:24:42.782Z,99643.00
2023-02-20T10:27:33.855Z,99632.16
2023-02-20T10:30:06.524Z,99628.56
2023-02-20T10:32:48.713Z,99614.88
2023-02-20T10:35:41.729Z,99605.41
2023-02-20T10:38:18.955Z,99610.00
2023-02-20T10:41:32.165Z,99607.13
2023-02-20T10:44:49.957Z,99602.31
2023-02-20T10:47:47.982Z,99604.22
2023-02-20T10:50:19.661Z,99604.03
2023-02-20T10:53:11.551Z,99600.47
2023-02-20T10:55:50.581Z,99611.75
2023-02-20T10:58:33.102Z,99603.28
2023-02-20T11:01:15.268Z,99595.34
2023-02-20T11:03:53.743Z,99580.66
2023-02-20T11:06:32.985Z,99577.41
2023-02-20T11:09:08.612Z,99580.41
2023-02-20T11:11:45.386Z,99584.03
2023-02-20T11:14:34.138Z,99572.63
2023-02-20T11:17:30.415Z,99564.31
2023-02-20T11:20:04.997Z,99558.97
2023-02-20T11:22:48.664Z,99549.16
2023-02-20T11:25:37.371Z,99541.56
2023-02-20T11:28:18.296Z,99533.97
2023-02-20T11:31:06.644Z,99537.75
2023-02-20T11:33:47.376Z,99521.03
2023-02-20T11:36:34.511Z,99517.81
2023-02-20T11:39:38.935Z,99520.06
2023-02-20T11:42:18.492Z,99521.22
2023-02-20T11:45:27.192Z,99496.59
2023-02-20T11:48:09.941Z,99517.13
2023-02-20T11:50:43.310Z,99507.06
2023-02-20T11:53:30.058Z,99507.53
2023-02-20T11:56:14.207Z,99499.94
2023-02-20T11:58:48.268Z,99509.59
2023-02-20T12:01:35.601Z,99507.25
2023-02-20T12:04:18.135Z,99502.94
2023-02-20T12:06:50.502Z,99481.41
2023-02-20T12:09:28.554Z,99489.34
2023-02-20T12:12:00.268Z,99483.28
2023-02-20T12:14:33.200Z,99488.94
2023-02-20T12:17:29.595Z,99484.44
2023-02-20T12:20:01.205Z,99478.84
2023-02-20T12:22:58.566Z,99479.69
2023-02-20T12:25:42.335Z,99469.44
2023-02-20T12:28:19.748Z,99454.09
2023-02-20T12:31:16.501Z,99460.13
2023-02-20T12:34:00.158Z,99460.50
2023-02-20T12:36:52.821Z,99464.91
2023-02-20T12:39:46.063Z,99460.28
2023-02-20T12:42:20.604Z,99454.75
2023-02-20T12:45:17.409Z,99448.03
2023-02-20T12:48:01.825Z,99449.69
2023-02-20T12:50:45.657Z,99438.63
2023-02-20T12:53:59.038Z,99438.00
2023-02-20T12:56:49.701Z,99428.66
2023-02-20T12:59:21.332Z,99418.78
2023-02-20T13:01:54.024Z,99409.25
2023-02-20T13:04:54.854Z,99415.50
2023-02-20T13:07:26.548Z,99426.09
2023-02-20T13:10:04.438Z,99426.81
2023-02-20T13:12:36.151Z,99416.41
2023-02-20T13:15:38.729Z,99410.75
2023-02-20T13:18:32.144Z,99412.19
2023-02-20T13:21:10.175Z,99408.22
2023-02-20T13:23:42.387Z,99406.41
2023-02-20T13:26:32.825Z,99410.78
2023-02-20T13:29:22.861Z,99402.09
2023-02-20T13:32:01.252Z,99407.00
2023-02-20T13:34:39.201Z,99395.56
2023-02-20T13:37:40.932Z,99407.88
2023-02-20T13:40:27.542Z,99393.19
2023-02-20T13:43:19.696Z,99401.63
2023-02-20T13:46:17.861Z,99400.47
2023-02-20T13:48:51.483Z,99404.94
2023-02-20T13:51:25.259Z,99402.63
2023-02-20T13:54:14.051Z,99400.72
2023-02-20T13:57:01.278Z,99399.53
2023-02-20T13:59:34.606Z,99385.06
2023-02-20T14:02:34.766Z,99381.75
2023-02-20T14:05:08.402Z,99375.94
2023-02-20T14:07:45.520Z,99369.06
2023-02-20T14:10:31.254Z,99362.09
2023-02-20T14:13:13.862Z,99353.88
2023-02-20T14:15:51.343Z,99347.75
2023-02-20T14:18:33.684Z,99346.47
2023-02-20T14:21:22.893Z,99330.97
2023-02-20T14:23:57.358Z,99329.47
2023-02-20T14:26:35.238Z,99327.28
2023-02-20T14:29:20.546Z,99319.72
2023-02-20T14:31:54.595Z,99313.78
2023-02-20T14:34:42.678Z,99306.47
2023-02-20T14:37:44.870Z,99308.13
2023-02-20T14:40:31.699Z,99307.94
2023-02-20T14:43:10.269Z,99316.69
2023-02-20T14:45:43.869Z,99307.31
2023-02-20T14:48:40.558Z,99302.47
2023-02-20T14:51:18.457Z,99301.31
2023-02-20T14:54:11.312Z,99290.06
2023-02-20T14:56:43.453Z,99277.19
2023-02-20T14:59:28.802Z,99273.91
2023-02-20T15:02:04.289Z,99273.38
2023-02-20T15:04:36.694Z,99284.13
2023-02-20T15:07:08.548Z,99279.31
2023-02-20T15:09:45.967Z,99276.50
2023-02-20T15:12:25.112Z,99274.00
2023-02-20T15:15:04.416Z,99267.53
2023-02-20T15:17:39.038Z,99274.94
2023-02-20T15:20:35.400Z,99279.69
2023-02-20T15:23:16.455Z,99276.69
2023-02-20T15:25:48.128Z,99273.03
2023-02-20T15:28:19.757Z,99272.03
2023-02-20T15:31:09.859Z,99266.41
2023-02-20T15:33:50.621Z,99268.84
2023-02-20T15:36:26.402Z,99264.38
2023-02-20T15:38:59.165Z,99261.72
2023-02-20T15:41:30.827Z,99262.56
2023-02-20T15:44:03.572Z,99249.13
2023-02-20T15:46:35.515Z,99250.25
2023-02-20T15:49:09.624Z,99239.25
2023-02-20T15:51:44.189Z,99239.25
2023-02-20T15:54:17.802Z,99235.44
2023-02-20T15:56:52.714Z,99234.28
2023-02-20T15:59:24.561Z,99237.72
2023-02-20T16:01:56.409Z,99236.72
2023-02-20T16:04:28.221Z,99236.53
2023-02-20T16:06:59.957Z,99234.72
2023-02-20T16:09:31.914Z,99237.19
2023-02-20T16:12:03.891Z,99247.13
2023-02-20T16:14:35.641Z,99255.91
2023-02-20T16:17:14.670Z,99241.19
2023-02-20T16:19:46.395Z,99239.56
2023-02-20T16:22:18.225Z,99246.03
2023-02-20T16:24:49.923Z,99264.94
2023-02-20T16:27:32.620Z,99252.72
2023-02-20T16:30:32.243Z,99262.22
2023-02-20T16:33:17.993Z,99262.38
2023-02-20T16:35:51.623Z,99267.03
2023-02-20T16:38:26.655Z,99268.84
2023-02-20T16:41:00.296Z,99262.09
2023-02-20T16:43:32.507Z,99267.75
2023-02-20T16:46:04.337Z,99275.34
2023-02-20T16:48:36.048Z,99276.69
2023-02-20T16:51:11.573Z,99270.56
2023-02-20T16:53:43.376Z,99273.41
2023-02-20T16:56:15.241Z,99273.75
2023-02-20T16:58:47.095Z,99269.47
2023-02-20T17:01:18.959Z,99275.78
2023-02-20T17:03:50.850Z,99281.41
2023-02-20T17:06:23.443Z,99283.22
2023-02-20T17:08:55.138Z,99287.91
2023-02-20T17:11:32.564Z,99283.13
2023-02-20T17:14:07.116Z,99296.34
2023-02-20T17:16:39.199Z,99296.06
2023-02-20T17:19:11.407Z,99291.78
2023-02-20T17:21:49.958Z,99291.59
2023-02-20T17:24:21.705Z,99292.16
2023-02-20T17:26:58.233Z,99293.97
2023-02-20T17:29:30.000Z,99301.25
2023-02-20T17:32:01.872Z,99301.41
2023-02-20T17:34:33.812Z,99298.13
2023-02-20T17:37:19.333Z,99291.53
2023-02-20T17:40:16.207Z,99306.59
2023-02-20T17:43:07.450Z,99309.75
2023-02-20T17:46:04.064Z,99300.34
2023-02-20T17:48:44.392Z,99303.00
2023-02-20T17:51:21.952Z,99298.53
2023-02-20T17:54:20.482Z,99298.16
2023-02-20T17:57:06.341Z,99299.97
2023-02-20T17:59:49.391Z,99305.94
2023-02-20T18:02:31.164Z,99305.75
2023-02-20T18:05:17.281Z,99304.78
2023-02-20T18:07:51.688Z,99308.03
2023-02-20T18:10:25.984Z,99299.09
2023-02-20T18:13:27.639Z,99303.75
2023-02-20T18:16:05.257Z,99306.22
2023-02-20T18:18:52.301Z,99300.75
2023-02-20T18:21:33.166Z,99298.13
2023-02-20T18:24:05.062Z,99295.63
2023-02-20T18:26:43.852Z,99298.44
2023-02-20T18:29:21.150Z,99290.88
2023-02-20T18:31:54.047Z,99284.06
2023-02-20T18:34:27.916Z,99286.41
2023-02-20T18:37:02.456Z,99293.88
2023-02-20T18:39:36.164Z,99283.28
2023-02-20T18:42:08.049Z,99293.41
2023-02-20T18:44:39.864Z,99292.59
2023-02-20T18:47:11.615Z,99285.94
2023-02-20T18:49:43.418Z,99299.81
2023-02-20T18:52:16.006Z,99284.94
2023-02-20T18:54:47.762Z,99296.88
2023-02-20T18:57:19.504Z,99287.66
2023-02-20T18:59:51.226Z,99297.41
2023-02-20T19:02:22.969Z,99294.09
2023-02-20T19:04:58.007Z,99288.69
2023-02-20T19:07:30.509Z,99288.41
2023-02-20T19:10:02.977Z,99293.56
2023-02-20T19:12:34.753Z,99287.00
2023-02-20T19:15:07.610Z,99291.78
2023-02-20T19:17:39.625Z,99298.91
2023-02-20T19:20:43.523Z,99302.25
2023-02-20T19:23:15.243Z,99303.25
2023-02-20T19:25:46.964Z,99293.50
2023-02-20T19:28:18.838Z,99303.25
2023-02-20T19:30:50.610Z,99296.16
2023-02-20T19:33:22.432Z,99296.47
2023-02-20T19:35:55.326Z,99300.59
2023-02-20T19:38:27.338Z,99302.44
2023-02-20T19:40:59.423Z,99298.78
2023-02-20T19:43:31.131Z,99302.72
2023-02-20T19:46:02.898Z,99295.94
2023-02-20T19:48:34.634Z,99304.06
2023-02-20T19:51:09.596Z,99300.25
2023-02-20T19:53:41.370Z,99312.19
2023-02-20T19:56:13.346Z,99307.72
2023-02-20T19:58:46.205Z,99300.41
2023-02-20T20:01:20.012Z,99303.78
2023-02-20T20:03:51.774Z,99304.94
2023-02-20T20:06:26.695Z,99292.72
2023-02-20T20:09:13.511Z,99299.81
2023-02-20T20:11:47.107Z,99310.22
2023-02-20T20:14:20.300Z,99306.75
2023-02-20T20:16:52.175Z,99309.41
2023-02-20T20:19:24.031Z,99304.09
2023-02-20T20:21:55.904Z,99314.84
2023-02-20T20:24:27.604Z,99315.84
2023-02-20T20:26:59.386Z,99312.72
2023-02-20T20:29:31.068Z,99317.56
2023-02-20T20:32:03.647Z,99317.56
2023-02-20T20:34:36.354Z,99303.50
2023-02-20T20:37:11.588Z,99309.78
2023-02-20T20:39:43.342Z,99313.78
2023-02-20T20:42:23.331Z,99310.47
2023-02-20T20:44:57.688Z,99314.09
2023-02-20T20:47:30.953Z,99308.34
2023-02-20T20:50:03.779Z,99312.97
2023-02-20T20:52:35.434Z,99313.34
2023-02-20T20:55:07.798Z,99311.00
2023-02-20T20:57:41.201Z,99303.44
2023-02-20T21:00:21.643Z,99306.25
2023-02-20T21:02:56.766Z,99306.41
2023-02-20T21:05:31.755Z,99310.88
2023-02-20T21:08:05.889Z,99307.09
2023-02-20T21:10:38.111Z,99308.09
2023-02-20T21:13:11.348Z,99309.25
2023-02-20T21:15:46.212Z,99308.28
2023-02-20T21:18:18.052Z,99317.19
2023-02-20T21:20:56.978Z,99304.16
2023-02-20T21:23:28.708Z,99308.59
2023-02-20T21:26:00.873Z,99315.06
2023-02-20T21:28:33.167Z,99302.66
2023-02-20T21:31:05.153Z,99302.03
2023-02-20T21:33:36.958Z,99309.13
2023-02-20T21:36:08.850Z,99306.47
2023-02-20T21:38:40.593Z,99304.97
2023-02-20T21:41:32.857Z,99296.44
2023-02-20T21:44:23.160Z,99301.88
2023-02-20T21:46:57.098Z,99290.94
2023-02-20T21:49:34.025Z,99291.81
2023-02-20T21:52:05.925Z,99289.34
2023-02-20T21:54:39.422Z,99289.66
2023-02-20T21:57:11.182Z,99287.38
2023-02-20T21:59:42.856Z,99288.06
2023-02-20T22:02:19.509Z,99290.69
2023-02-20T22:04:51.282Z,99286.44
2023-02-20T22:07:41.398Z,99279.47
2023-02-20T22:10:36.012Z,99296.81
2023-02-20T22:13:26.251Z,99301.91
2023-02-20T22:16:16.542Z,99298.28
2023-02-20T22:19:06.894Z,99296.16
2023-02-20T22:21:57.138Z,99293.03
2023-02-20T22:24:47.443Z,99285.63
2023-02-20T22:27:38.028Z,99287.59
2023-02-20T22:30:29.019Z,99268.13
2023-02-20T22:33:19.279Z,99282.81
2023-02-20T22:36:09.567Z,99285.78
2023-02-20T22:39:00.136Z,99279.69
2023-02-20T22:41:50.311Z,99268.31
2023-02-20T22:44:40.553Z,99268.97
2023-02-20T22:47:30.966Z,99258.06
2023-02-20T22:50:21.548Z,99262.69
2023-02-20T22:53:11.724Z,99262.84
2023-02-20T22:56:02.355Z,99256.56
2023-02-20T22:58:52.600Z,99253.25
2023-02-20T23:01:42.580Z,99255.56
2023-02-20T23:04:32.772Z,99262.00
2023-02-20T23:07:23.165Z,99277.81
2023-02-20T23:10:13.324Z,99266.44
2023-02-20T23:13:03.584Z,99268.06
2023-02-20T23:15:54.130Z,99268.22
2023-02-20T23:18:44.564Z,99280.91
2023-02-20T23:21:34.919Z,99288.97
2023-02-20T23:24:25.260Z,99287.50
2023-02-20T23:27:15.605Z,99281.69
2023-02-20T23:30:05.912Z,99293.41
2023-02-20T23:32:58.707Z,99283.00
2023-02-20T23:35:48.864Z,99293.84
2023-02-20T23:38:39.169Z,99291.06
2023-02-20T23:41:29.633Z,99300.97
2023-02-20T23:44:20.061Z,99285.16
2023-02-20T23:47:10.666Z,99287.25
2023-02-20T23:50:00.983Z,99282.97
2023-02-20T23:52:50.991Z,99281.84
2023-02-20T23:55:41.135Z,99276.25
2023-02-20T23:58:31.579Z,99277.38
